sensor_id;sensor_type;location;lat;lon;timestamp;temperature;humidity
11597;DHT22;5854;48.072;16.286;2024-02-21T00:00:35;7.80;69.30
11597;DHT22;5854;48.072;16.286;2024-02-21T00:03:04;7.80;75.30
11597;DHT22;5854;48.072;16.286;2024-02-21T00:05:31;7.80;69.50
11597;DHT22;5854;48.072;16.286;2024-02-21T00:08:00;7.80;66.20
11597;DHT22;5854;48.072;16.286;2024-02-21T00:10:29;7.80;65.30
11597;DHT22;5854;48.072;16.286;2024-02-21T00:12:57;7.80;72.40
11597;DHT22;5854;48.072;16.286;2024-02-21T00:15:25;7.80;72.30
11597;DHT22;5854;48.072;16.286;2024-02-21T00:17:52;7.90;69.00
11597;DHT22;5854;48.072;16.286;2024-02-21T00:20:19;7.80;67.00
11597;DHT22;5854;48.072;16.286;2024-02-21T00:22:47;7.80;68.80
11597;DHT22;5854;48.072;16.286;2024-02-21T00:25:15;7.80;67.00
11597;DHT22;5854;48.072;16.286;2024-02-21T00:27:43;7.90;68.40
11597;DHT22;5854;48.072;16.286;2024-02-21T00:30:11;7.80;68.90
11597;DHT22;5854;48.072;16.286;2024-02-21T00:32:39;7.90;75.70
11597;DHT22;5854;48.072;16.286;2024-02-21T00:35:06;7.80;71.10
11597;DHT22;5854;48.072;16.286;2024-02-21T00:37:34;7.80;68.80
11597;DHT22;5854;48.072;16.286;2024-02-21T00:40:01;7.80;68.50
11597;DHT22;5854;48.072;16.286;2024-02-21T00:42:30;7.80;68.60
11597;DHT22;5854;48.072;16.286;2024-02-21T00:44:57;7.80;72.50
11597;DHT22;5854;48.072;16.286;2024-02-21T00:47:24;7.80;69.30
11597;DHT22;5854;48.072;16.286;2024-02-21T00:49:52;7.80;68.70
11597;DHT22;5854;48.072;16.286;2024-02-21T00:52:19;7.80;71.40
11597;DHT22;5854;48.072;16.286;2024-02-21T00:54:46;7.80;67.60
11597;DHT22;5854;48.072;16.286;2024-02-21T00:57:14;7.80;72.70
11597;DHT22;5854;48.072;16.286;2024-02-21T00:59:43;7.70;63.40
11597;DHT22;5854;48.072;16.286;2024-02-21T01:02:10;7.80;66.50
11597;DHT22;5854;48.072;16.286;2024-02-21T01:04:37;7.80;74.40
11597;DHT22;5854;48.072;16.286;2024-02-21T01:07:05;7.80;69.20
11597;DHT22;5854;48.072;16.286;2024-02-21T01:09:32;7.80;64.40
11597;DHT22;5854;48.072;16.286;2024-02-21T01:11:59;7.80;72.10
11597;DHT22;5854;48.072;16.286;2024-02-21T01:14:26;7.80;73.60
11597;DHT22;5854;48.072;16.286;2024-02-21T01:16:55;7.80;62.90
11597;DHT22;5854;48.072;16.286;2024-02-21T01:19:22;7.80;71.60
11597;DHT22;5854;48.072;16.286;2024-02-21T01:21:49;7.90;70.70
11597;DHT22;5854;48.072;16.286;2024-02-21T01:24:17;7.90;69.80
11597;DHT22;5854;48.072;16.286;2024-02-21T01:26:44;7.80;73.90
11597;DHT22;5854;48.072;16.286;2024-02-21T01:29:12;7.80;73.80
11597;DHT22;5854;48.072;16.286;2024-02-21T01:31:39;7.80;72.40
11597;DHT22;5854;48.072;16.286;2024-02-21T01:34:07;7.80;69.90
11597;DHT22;5854;48.072;16.286;2024-02-21T01:36:35;7.80;72.70
11597;DHT22;5854;48.072;16.286;2024-02-21T01:39:02;7.70;71.90
11597;DHT22;5854;48.072;16.286;2024-02-21T01:41:30;7.70;68.10
11597;DHT22;5854;48.072;16.286;2024-02-21T01:43:57;7.70;69.70
11597;DHT22;5854;48.072;16.286;2024-02-21T01:46:24;7.70;64.60
11597;DHT22;5854;48.072;16.286;2024-02-21T01:48:54;7.70;76.00
11597;DHT22;5854;48.072;16.286;2024-02-21T01:51:23;7.70;74.80
11597;DHT22;5854;48.072;16.286;2024-02-21T01:53:52;7.70;68.70
11597;DHT22;5854;48.072;16.286;2024-02-21T01:56:20;7.70;68.90
11597;DHT22;5854;48.072;16.286;2024-02-21T01:58:48;7.70;68.50
11597;DHT22;5854;48.072;16.286;2024-02-21T02:01:16;7.70;69.70
11597;DHT22;5854;48.072;16.286;2024-02-21T02:03:45;7.70;73.80
11597;DHT22;5854;48.072;16.286;2024-02-21T02:06:13;7.60;68.80
11597;DHT22;5854;48.072;16.286;2024-02-21T02:08:42;7.70;71.00
11597;DHT22;5854;48.072;16.286;2024-02-21T02:11:10;7.60;63.10
11597;DHT22;5854;48.072;16.286;2024-02-21T02:13:37;7.70;64.00
11597;DHT22;5854;48.072;16.286;2024-02-21T02:16:05;7.70;66.80
11597;DHT22;5854;48.072;16.286;2024-02-21T02:18:33;7.70;68.80
11597;DHT22;5854;48.072;16.286;2024-02-21T02:21:00;7.70;72.00
11597;DHT22;5854;48.072;16.286;2024-02-21T02:23:29;7.70;72.50
11597;DHT22;5854;48.072;16.286;2024-02-21T02:25:58;7.70;69.30
11597;DHT22;5854;48.072;16.286;2024-02-21T02:28:26;7.70;67.40
11597;DHT22;5854;48.072;16.286;2024-02-21T02:30:54;7.70;65.00
11597;DHT22;5854;48.072;16.286;2024-02-21T02:33:21;7.70;66.50
11597;DHT22;5854;48.072;16.286;2024-02-21T02:35:48;7.70;73.80
11597;DHT22;5854;48.072;16.286;2024-02-21T02:38:16;7.60;64.60
11597;DHT22;5854;48.072;16.286;2024-02-21T02:40:44;7.70;70.80
11597;DHT22;5854;48.072;16.286;2024-02-21T02:43:12;7.70;74.70
11597;DHT22;5854;48.072;16.286;2024-02-21T02:45:39;7.70;69.70
11597;DHT22;5854;48.072;16.286;2024-02-21T02:48:07;7.70;70.10
11597;DHT22;5854;48.072;16.286;2024-02-21T02:50:34;7.60;70.40
11597;DHT22;5854;48.072;16.286;2024-02-21T02:53:02;7.70;65.20
11597;DHT22;5854;48.072;16.286;2024-02-21T02:55:29;7.70;72.80
11597;DHT22;5854;48.072;16.286;2024-02-21T02:57:57;7.70;65.60
11597;DHT22;5854;48.072;16.286;2024-02-21T03:00:24;7.70;76.30
11597;DHT22;5854;48.072;16.286;2024-02-21T03:02:51;7.60;72.10
11597;DHT22;5854;48.072;16.286;2024-02-21T03:05:19;7.60;72.80
11597;DHT22;5854;48.072;16.286;2024-02-21T03:07:48;7.60;67.80
11597;DHT22;5854;48.072;16.286;2024-02-21T03:10:15;7.70;73.00
11597;DHT22;5854;48.072;16.286;2024-02-21T03:12:43;7.70;75.90
11597;DHT22;5854;48.072;16.286;2024-02-21T03:15:12;7.60;71.70
11597;DHT22;5854;48.072;16.286;2024-02-21T03:17:40;7.60;70.60
11597;DHT22;5854;48.072;16.286;2024-02-21T03:20:08;7.60;67.00
11597;DHT22;5854;48.072;16.286;2024-02-21T03:22:36;7.70;74.80
11597;DHT22;5854;48.072;16.286;2024-02-21T03:25:04;7.70;70.80
11597;DHT22;5854;48.072;16.286;2024-02-21T03:27:32;7.60;74.00
11597;DHT22;5854;48.072;16.286;2024-02-21T03:29:59;7.60;69.10
11597;DHT22;5854;48.072;16.286;2024-02-21T03:32:28;7.60;66.20
11597;DHT22;5854;48.072;16.286;2024-02-21T03:34:55;7.60;71.40
11597;DHT22;5854;48.072;16.286;2024-02-21T03:37:22;7.60;69.80
11597;DHT22;5854;48.072;16.286;2024-02-21T03:39:50;7.60;64.40
11597;DHT22;5854;48.072;16.286;2024-02-21T03:42:17;7.60;68.30
11597;DHT22;5854;48.072;16.286;2024-02-21T03:44:44;7.60;71.40
11597;DHT22;5854;48.072;16.286;2024-02-21T03:47:11;7.60;70.10
11597;DHT22;5854;48.072;16.286;2024-02-21T03:49:40;7.50;72.20
11597;DHT22;5854;48.072;16.286;2024-02-21T03:52:08;7.50;68.70
11597;DHT22;5854;48.072;16.286;2024-02-21T03:54:36;7.50;76.30
11597;DHT22;5854;48.072;16.286;2024-02-21T03:57:05;7.40;71.30
11597;DHT22;5854;48.072;16.286;2024-02-21T03:59:32;7.40;71.50
11597;DHT22;5854;48.072;16.286;2024-02-21T04:01:59;7.40;71.30
11597;DHT22;5854;48.072;16.286;2024-02-21T04:04:29;7.40;68.90
11597;DHT22;5854;48.072;16.286;2024-02-21T04:06:58;7.40;76.20
11597;DHT22;5854;48.072;16.286;2024-02-21T04:09:25;7.30;70.60
11597;DHT22;5854;48.072;16.286;2024-02-21T04:11:53;7.30;77.50
11597;DHT22;5854;48.072;16.286;2024-02-21T04:14:20;7.30;74.00
11597;DHT22;5854;48.072;16.286;2024-02-21T04:16:47;7.30;68.10
11597;DHT22;5854;48.072;16.286;2024-02-21T04:19:14;7.30;73.30
11597;DHT22;5854;48.072;16.286;2024-02-21T04:21:42;7.30;74.90
11597;DHT22;5854;48.072;16.286;2024-02-21T04:24:11;7.30;72.90
11597;DHT22;5854;48.072;16.286;2024-02-21T04:26:39;7.20;70.10
11597;DHT22;5854;48.072;16.286;2024-02-21T04:29:06;7.30;74.80
11597;DHT22;5854;48.072;16.286;2024-02-21T04:31:33;7.30;67.10
11597;DHT22;5854;48.072;16.286;2024-02-21T04:34:00;7.30;71.00
11597;DHT22;5854;48.072;16.286;2024-02-21T04:36:28;7.30;71.20
11597;DHT22;5854;48.072;16.286;2024-02-21T04:38:55;7.30;72.10
11597;DHT22;5854;48.072;16.286;2024-02-21T04:41:24;7.30;76.30
11597;DHT22;5854;48.072;16.286;2024-02-21T04:43:51;7.30;76.90
11597;DHT22;5854;48.072;16.286;2024-02-21T04:46:19;7.30;75.70
11597;DHT22;5854;48.072;16.286;2024-02-21T04:48:46;7.30;75.90
11597;DHT22;5854;48.072;16.286;2024-02-21T04:51:13;7.30;68.20
11597;DHT22;5854;48.072;16.286;2024-02-21T04:53:40;7.30;75.80
11597;DHT22;5854;48.072;16.286;2024-02-21T04:56:07;7.30;69.70
11597;DHT22;5854;48.072;16.286;2024-02-21T04:58:39;7.30;69.90
11597;DHT22;5854;48.072;16.286;2024-02-21T05:01:06;7.30;72.40
11597;DHT22;5854;48.072;16.286;2024-02-21T05:03:34;7.30;70.80
11597;DHT22;5854;48.072;16.286;2024-02-21T05:06:01;7.30;72.00
11597;DHT22;5854;48.072;16.286;2024-02-21T05:08:29;7.30;75.20
11597;DHT22;5854;48.072;16.286;2024-02-21T05:10:56;7.30;65.00
11597;DHT22;5854;48.072;16.286;2024-02-21T05:13:23;7.30;67.00
11597;DHT22;5854;48.072;16.286;2024-02-21T05:15:52;7.30;70.00
11597;DHT22;5854;48.072;16.286;2024-02-21T05:18:20;7.30;70.20
11597;DHT22;5854;48.072;16.286;2024-02-21T05:20:47;7.30;65.20
11597;DHT22;5854;48.072;16.286;2024-02-21T05:23:14;7.30;71.80
11597;DHT22;5854;48.072;16.286;2024-02-21T05:25:41;7.30;67.00
11597;DHT22;5854;48.072;16.286;2024-02-21T05:28:09;7.30;61.50
11597;DHT22;5854;48.072;16.286;2024-02-21T05:30:36;7.30;65.00
11597;DHT22;5854;48.072;16.286;2024-02-21T05:33:07;7.40;69.10
11597;DHT22;5854;48.072;16.286;2024-02-21T05:35:35;7.40;70.70
11597;DHT22;5854;48.072;16.286;2024-02-21T05:38:02;7.30;65.80
11597;DHT22;5854;48.072;16.286;2024-02-21T05:40:32;7.30;63.90
11597;DHT22;5854;48.072;16.286;2024-02-21T05:42:59;7.30;65.40
11597;DHT22;5854;48.072;16.286;2024-02-21T05:45:27;7.30;64.40
11597;DHT22;5854;48.072;16.286;2024-02-21T05:47:54;7.40;63.20
11597;DHT22;5854;48.072;16.286;2024-02-21T05:50:24;7.40;67.00
11597;DHT22;5854;48.072;16.286;2024-02-21T05:52:52;7.40;67.70
11597;DHT22;5854;48.072;16.286;2024-02-21T05:55:21;7.40;68.60
11597;DHT22;5854;48.072;16.286;2024-02-21T05:57:48;7.40;64.40
11597;DHT22;5854;48.072;16.286;2024-02-21T06:00:16;7.40;72.50
11597;DHT22;5854;48.072;16.286;2024-02-21T06:02:43;7.40;67.00
11597;DHT22;5854;48.072;16.286;2024-02-21T06:05:11;7.50;71.70
11597;DHT22;5854;48.072;16.286;2024-02-21T06:07:39;7.50;67.00
11597;DHT22;5854;48.072;16.286;2024-02-21T06:10:07;7.50;63.80
11597;DHT22;5854;48.072;16.286;2024-02-21T06:12:35;7.50;65.50
11597;DHT22;5854;48.072;16.286;2024-02-21T06:15:02;7.40;60.30
11597;DHT22;5854;48.072;16.286;2024-02-21T06:17:30;7.50;66.80
11597;DHT22;5854;48.072;16.286;2024-02-21T06:19:57;7.50;67.00
11597;DHT22;5854;48.072;16.286;2024-02-21T06:22:24;7.50;67.30
11597;DHT22;5854;48.072;16.286;2024-02-21T06:24:53;7.50;61.50
11597;DHT22;5854;48.072;16.286;2024-02-21T06:27:20;7.60;63.10
11597;DHT22;5854;48.072;16.286;2024-02-21T06:29:47;7.60;60.40
11597;DHT22;5854;48.072;16.286;2024-02-21T06:32:15;7.60;64.80
11597;DHT22;5854;48.072;16.286;2024-02-21T06:34:42;7.60;62.30
11597;DHT22;5854;48.072;16.286;2024-02-21T06:37:09;7.60;65.30
11597;DHT22;5854;48.072;16.286;2024-02-21T06:39:37;7.60;64.50
11597;DHT22;5854;48.072;16.286;2024-02-21T06:42:07;7.60;58.20
11597;DHT22;5854;48.072;16.286;2024-02-21T06:44:35;7.80;64.80
11597;DHT22;5854;48.072;16.286;2024-02-21T06:47:06;8.10;68.80
11597;DHT22;5854;48.072;16.286;2024-02-21T06:49:34;8.10;60.40
11597;DHT22;5854;48.072;16.286;2024-02-21T06:52:03;8.10;58.40
11597;DHT22;5854;48.072;16.286;2024-02-21T06:54:31;8.00;59.00
11597;DHT22;5854;48.072;16.286;2024-02-21T06:56:58;8.00;59.60
11597;DHT22;5854;48.072;16.286;2024-02-21T06:59:27;7.90;59.80
11597;DHT22;5854;48.072;16.286;2024-02-21T07:01:54;7.90;59.20
11597;DHT22;5854;48.072;16.286;2024-02-21T07:04:22;8.00;64.10
11597;DHT22;5854;48.072;16.286;2024-02-21T07:06:49;8.00;65.40
11597;DHT22;5854;48.072;16.286;2024-02-21T07:09:17;7.90;57.90
11597;DHT22;5854;48.072;16.286;2024-02-21T07:11:44;8.00;64.40
11597;DHT22;5854;48.072;16.286;2024-02-21T07:14:11;8.00;59.60
11597;DHT22;5854;48.072;16.286;2024-02-21T07:16:42;8.00;66.50
11597;DHT22;5854;48.072;16.286;2024-02-21T07:19:09;7.90;58.80
11597;DHT22;5854;48.072;16.286;2024-02-21T07:21:36;7.90;58.40
11597;DHT22;5854;48.072;16.286;2024-02-21T07:24:07;8.00;63.50
11597;DHT22;5854;48.072;16.286;2024-02-21T07:26:34;8.10;62.20
11597;DHT22;5854;48.072;16.286;2024-02-21T07:29:01;8.10;59.60
11597;DHT22;5854;48.072;16.286;2024-02-21T07:31:29;8.10;61.70
11597;DHT22;5854;48.072;16.286;2024-02-21T07:33:57;8.00;63.40
11597;DHT22;5854;48.072;16.286;2024-02-21T07:36:29;8.10;65.70
11597;DHT22;5854;48.072;16.286;2024-02-21T07:38:57;8.10;58.30
11597;DHT22;5854;48.072;16.286;2024-02-21T07:41:25;8.10;63.80
11597;DHT22;5854;48.072;16.286;2024-02-21T07:43:54;8.20;58.70
11597;DHT22;5854;48.072;16.286;2024-02-21T07:46:21;8.40;61.00
11597;DHT22;5854;48.072;16.286;2024-02-21T07:48:48;8.40;60.70
11597;DHT22;5854;48.072;16.286;2024-02-21T07:51:19;8.50;59.30
11597;DHT22;5854;48.072;16.286;2024-02-21T07:53:46;8.60;58.30
11597;DHT22;5854;48.072;16.286;2024-02-21T07:56:14;8.70;58.70
11597;DHT22;5854;48.072;16.286;2024-02-21T07:58:42;8.60;57.70
11597;DHT22;5854;48.072;16.286;2024-02-21T08:01:09;8.60;64.50
11597;DHT22;5854;48.072;16.286;2024-02-21T08:03:37;8.60;59.50
11597;DHT22;5854;48.072;16.286;2024-02-21T08:06:04;8.70;57.60
11597;DHT22;5854;48.072;16.286;2024-02-21T08:08:33;8.70;64.10
11597;DHT22;5854;48.072;16.286;2024-02-21T08:11:00;8.80;60.00
11597;DHT22;5854;48.072;16.286;2024-02-21T08:13:27;8.90;54.20
11597;DHT22;5854;48.072;16.286;2024-02-21T08:15:55;9.00;55.80
11597;DHT22;5854;48.072;16.286;2024-02-21T08:18:23;9.00;57.20
11597;DHT22;5854;48.072;16.286;2024-02-21T08:20:53;8.90;59.20
11597;DHT22;5854;48.072;16.286;2024-02-21T08:23:24;9.00;52.20
11597;DHT22;5854;48.072;16.286;2024-02-21T08:25:52;8.90;58.50
11597;DHT22;5854;48.072;16.286;2024-02-21T08:28:20;8.90;55.20
11597;DHT22;5854;48.072;16.286;2024-02-21T08:30:47;9.10;53.30
11597;DHT22;5854;48.072;16.286;2024-02-21T08:33:15;9.20;58.30
11597;DHT22;5854;48.072;16.286;2024-02-21T08:35:43;9.50;51.70
11597;DHT22;5854;48.072;16.286;2024-02-21T08:38:10;9.40;60.90
11597;DHT22;5854;48.072;16.286;2024-02-21T08:40:37;9.50;51.10
11597;DHT22;5854;48.072;16.286;2024-02-21T08:43:06;9.70;56.60
11597;DHT22;5854;48.072;16.286;2024-02-21T08:45:33;9.70;57.10
11597;DHT22;5854;48.072;16.286;2024-02-21T08:48:01;9.60;55.50
11597;DHT22;5854;48.072;16.286;2024-02-21T08:50:28;9.60;52.00
11597;DHT22;5854;48.072;16.286;2024-02-21T08:52:55;9.70;55.90
11597;DHT22;5854;48.072;16.286;2024-02-21T08:55:23;9.80;54.00
11597;DHT22;5854;48.072;16.286;2024-02-21T08:57:50;9.70;51.20
11597;DHT22;5854;48.072;16.286;2024-02-21T09:00:20;9.80;57.70
11597;DHT22;5854;48.072;16.286;2024-02-21T09:02:52;9.90;54.50
11597;DHT22;5854;48.072;16.286;2024-02-21T09:05:21;9.70;53.90
11597;DHT22;5854;48.072;16.286;2024-02-21T09:07:49;9.90;53.20
11597;DHT22;5854;48.072;16.286;2024-02-21T09:10:17;9.90;52.40
11597;DHT22;5854;48.072;16.286;2024-02-21T09:12:44;9.80;51.60
11597;DHT22;5854;48.072;16.286;2024-02-21T09:15:11;9.70;53.00
11597;DHT22;5854;48.072;16.286;2024-02-21T09:17:40;9.70;54.70
11597;DHT22;5854;48.072;16.286;2024-02-21T09:20:08;9.70;52.20
11597;DHT22;5854;48.072;16.286;2024-02-21T09:22:37;9.70;58.50
11597;DHT22;5854;48.072;16.286;2024-02-21T09:25:06;9.90;52.90
11597;DHT22;5854;48.072;16.286;2024-02-21T09:27:35;10.00;54.80
11597;DHT22;5854;48.072;16.286;2024-02-21T09:30:03;10.00;56.60
11597;DHT22;5854;48.072;16.286;2024-02-21T09:32:31;10.00;55.80
11597;DHT22;5854;48.072;16.286;2024-02-21T09:35:00;10.10;57.20
11597;DHT22;5854;48.072;16.286;2024-02-21T09:37:28;9.90;56.40
11597;DHT22;5854;48.072;16.286;2024-02-21T09:39:55;10.00;55.70
11597;DHT22;5854;48.072;16.286;2024-02-21T09:42:30;10.20;56.30
11597;DHT22;5854;48.072;16.286;2024-02-21T09:45:08;10.40;54.60
11597;DHT22;5854;48.072;16.286;2024-02-21T09:47:44;10.20;58.00
11597;DHT22;5854;48.072;16.286;2024-02-21T09:50:19;10.10;51.80
11597;DHT22;5854;48.072;16.286;2024-02-21T09:52:48;10.00;56.20
11597;DHT22;5854;48.072;16.286;2024-02-21T09:55:18;9.90;51.80
11597;DHT22;5854;48.072;16.286;2024-02-21T09:57:45;10.20;50.20
11597;DHT22;5854;48.072;16.286;2024-02-21T10:00:14;10.30;55.30
11597;DHT22;5854;48.072;16.286;2024-02-21T10:02:47;10.40;51.30
11597;DHT22;5854;48.072;16.286;2024-02-21T10:05:15;10.50;49.80
11597;DHT22;5854;48.072;16.286;2024-02-21T10:07:44;10.60;48.80
11597;DHT22;5854;48.072;16.286;2024-02-21T10:10:12;10.60;55.00
11597;DHT22;5854;48.072;16.286;2024-02-21T10:12:48;10.60;54.60
11597;DHT22;5854;48.072;16.286;2024-02-21T10:15:20;10.80;49.40
11597;DHT22;5854;48.072;16.286;2024-02-21T10:17:49;10.80;54.10
11597;DHT22;5854;48.072;16.286;2024-02-21T10:20:17;10.90;54.30
11597;DHT22;5854;48.072;16.286;2024-02-21T10:22:45;10.90;51.80
11597;DHT22;5854;48.072;16.286;2024-02-21T10:25:13;10.60;53.70
11597;DHT22;5854;48.072;16.286;2024-02-21T10:27:40;10.50;57.50
11597;DHT22;5854;48.072;16.286;2024-02-21T10:30:13;10.60;52.90
11597;DHT22;5854;48.072;16.286;2024-02-21T10:32:49;10.30;53.60
11597;DHT22;5854;48.072;16.286;2024-02-21T10:35:26;10.50;52.80
11597;DHT22;5854;48.072;16.286;2024-02-21T10:37:56;10.50;52.30
11597;DHT22;5854;48.072;16.286;2024-02-21T10:40:24;10.70;55.20
11597;DHT22;5854;48.072;16.286;2024-02-21T10:42:56;10.80;48.80
11597;DHT22;5854;48.072;16.286;2024-02-21T10:45:29;10.80;51.40
11597;DHT22;5854;48.072;16.286;2024-02-21T10:48:06;10.80;50.60
11597;DHT22;5854;48.072;16.286;2024-02-21T10:50:45;11.20;49.90
11597;DHT22;5854;48.072;16.286;2024-02-21T10:53:28;11.00;48.70
11597;DHT22;5854;48.072;16.286;2024-02-21T10:56:10;11.20;51.10
11597;DHT22;5854;48.072;16.286;2024-02-21T10:58:41;11.30;52.80
11597;DHT22;5854;48.072;16.286;2024-02-21T11:01:10;11.00;48.10
11597;DHT22;5854;48.072;16.286;2024-02-21T11:03:41;11.40;46.70
11597;DHT22;5854;48.072;16.286;2024-02-21T11:06:09;11.50;51.10
11597;DHT22;5854;48.072;16.286;2024-02-21T11:08:38;11.30;49.60
11597;DHT22;5854;48.072;16.286;2024-02-21T11:11:06;11.40;44.30
11597;DHT22;5854;48.072;16.286;2024-02-21T11:13:35;11.20;51.30
11597;DHT22;5854;48.072;16.286;2024-02-21T11:16:07;11.10;53.90
11597;DHT22;5854;48.072;16.286;2024-02-21T11:18:36;10.90;53.80
11597;DHT22;5854;48.072;16.286;2024-02-21T11:21:04;10.90;50.40
11597;DHT22;5854;48.072;16.286;2024-02-21T11:23:31;10.90;45.30
11597;DHT22;5854;48.072;16.286;2024-02-21T11:26:07;10.90;47.40
11597;DHT22;5854;48.072;16.286;2024-02-21T11:28:35;10.80;48.40
11597;DHT22;5854;48.072;16.286;2024-02-21T11:31:10;10.80;52.40
11597;DHT22;5854;48.072;16.286;2024-02-21T11:33:40;10.70;49.90
11597;DHT22;5854;48.072;16.286;2024-02-21T11:36:08;10.50;47.40
11597;DHT22;5854;48.072;16.286;2024-02-21T11:38:36;10.50;58.00
11597;DHT22;5854;48.072;16.286;2024-02-21T11:41:09;10.60;54.50
11597;DHT22;5854;48.072;16.286;2024-02-21T11:43:37;10.60;55.40
11597;DHT22;5854;48.072;16.286;2024-02-21T11:46:04;10.80;50.90
11597;DHT22;5854;48.072;16.286;2024-02-21T11:48:32;10.90;54.30
11597;DHT22;5854;48.072;16.286;2024-02-21T11:50:59;10.90;55.30
11597;DHT22;5854;48.072;16.286;2024-02-21T11:53:29;11.00;49.50
11597;DHT22;5854;48.072;16.286;2024-02-21T11:55:57;11.40;43.50
11597;DHT22;5854;48.072;16.286;2024-02-21T11:58:25;11.50;45.60
11597;DHT22;5854;48.072;16.286;2024-02-21T12:00:53;11.30;45.50
11597;DHT22;5854;48.072;16.286;2024-02-21T12:03:20;11.40;51.30
11597;DHT22;5854;48.072;16.286;2024-02-21T12:05:47;11.40;42.40
11597;DHT22;5854;48.072;16.286;2024-02-21T12:08:15;11.50;48.50
11597;DHT22;5854;48.072;16.286;2024-02-21T12:10:43;11.40;43.00
11597;DHT22;5854;48.072;16.286;2024-02-21T12:13:16;11.50;41.60
11597;DHT22;5854;48.072;16.286;2024-02-21T12:15:48;11.50;43.60
11597;DHT22;5854;48.072;16.286;2024-02-21T12:18:16;11.60;47.60
11597;DHT22;5854;48.072;16.286;2024-02-21T12:20:43;11.60;45.70
11597;DHT22;5854;48.072;16.286;2024-02-21T12:23:12;11.60;45.60
11597;DHT22;5854;48.072;16.286;2024-02-21T12:25:39;11.60;42.80
11597;DHT22;5854;48.072;16.286;2024-02-21T12:28:06;11.50;46.90
11597;DHT22;5854;48.072;16.286;2024-02-21T12:30:33;11.60;48.30
11597;DHT22;5854;48.072;16.286;2024-02-21T12:33:05;11.60;48.00
11597;DHT22;5854;48.072;16.286;2024-02-21T12:35:32;11.60;51.10
11597;DHT22;5854;48.072;16.286;2024-02-21T12:38:00;11.60;47.60
11597;DHT22;5854;48.072;16.286;2024-02-21T12:40:27;11.60;42.10
11597;DHT22;5854;48.072;16.286;2024-02-21T12:42:58;11.60;41.90
11597;DHT22;5854;48.072;16.286;2024-02-21T12:45:28;11.70;50.50
11597;DHT22;5854;48.072;16.286;2024-02-21T12:47:55;11.60;45.00
11597;DHT22;5854;48.072;16.286;2024-02-21T12:50:24;11.50;41.40
11597;DHT22;5854;48.072;16.286;2024-02-21T12:52:52;11.60;44.20
11597;DHT22;5854;48.072;16.286;2024-02-21T12:55:19;11.70;42.70
11597;DHT22;5854;48.072;16.286;2024-02-21T12:57:46;11.80;42.80
11597;DHT22;5854;48.072;16.286;2024-02-21T13:00:15;11.80;51.80
11597;DHT22;5854;48.072;16.286;2024-02-21T13:02:43;11.70;51.70
11597;DHT22;5854;48.072;16.286;2024-02-21T13:05:12;11.70;49.00
11597;DHT22;5854;48.072;16.286;2024-02-21T13:07:40;11.70;41.60
11597;DHT22;5854;48.072;16.286;2024-02-21T13:10:08;11.60;51.50
11597;DHT22;5854;48.072;16.286;2024-02-21T13:12:35;11.70;44.80
11597;DHT22;5854;48.072;16.286;2024-02-21T13:15:02;11.80;43.50
11597;DHT22;5854;48.072;16.286;2024-02-21T13:17:30;11.90;44.10
11597;DHT22;5854;48.072;16.286;2024-02-21T13:19:57;11.90;43.80
11597;DHT22;5854;48.072;16.286;2024-02-21T13:22:25;12.00;47.40
11597;DHT22;5854;48.072;16.286;2024-02-21T13:24:54;12.00;43.80
11597;DHT22;5854;48.072;16.286;2024-02-21T13:27:21;12.40;49.60
11597;DHT22;5854;48.072;16.286;2024-02-21T13:29:48;12.50;41.40
11597;DHT22;5854;48.072;16.286;2024-02-21T13:32:16;12.50;41.40
11597;DHT22;5854;48.072;16.286;2024-02-21T13:34:43;12.30;52.00
11597;DHT22;5854;48.072;16.286;2024-02-21T13:37:10;12.00;47.50
11597;DHT22;5854;48.072;16.286;2024-02-21T13:39:39;11.90;53.20
11597;DHT22;5854;48.072;16.286;2024-02-21T13:42:08;11.90;48.40
11597;DHT22;5854;48.072;16.286;2024-02-21T13:44:35;12.00;45.90
11597;DHT22;5854;48.072;16.286;2024-02-21T13:47:03;12.20;43.60
11597;DHT22;5854;48.072;16.286;2024-02-21T13:49:31;12.30;43.50
11597;DHT22;5854;48.072;16.286;2024-02-21T13:51:58;12.20;47.00
11597;DHT22;5854;48.072;16.286;2024-02-21T13:54:25;12.10;50.20
11597;DHT22;5854;48.072;16.286;2024-02-21T13:56:53;12.10;47.90
11597;DHT22;5854;48.072;16.286;2024-02-21T13:59:21;12.20;45.00
11597;DHT22;5854;48.072;16.286;2024-02-21T14:01:48;12.30;42.60
11597;DHT22;5854;48.072;16.286;2024-02-21T14:04:16;12.50;43.00
11597;DHT22;5854;48.072;16.286;2024-02-21T14:06:43;12.50;42.10
11597;DHT22;5854;48.072;16.286;2024-02-21T14:09:10;12.50;43.50
11597;DHT22;5854;48.072;16.286;2024-02-21T14:11:38;12.50;48.90
11597;DHT22;5854;48.072;16.286;2024-02-21T14:14:05;12.40;48.00
11597;DHT22;5854;48.072;16.286;2024-02-21T14:16:34;12.40;39.60
11597;DHT22;5854;48.072;16.286;2024-02-21T14:19:01;12.50;42.20
11597;DHT22;5854;48.072;16.286;2024-02-21T14:21:28;12.40;42.30
11597;DHT22;5854;48.072;16.286;2024-02-21T14:23:56;12.30;40.90
11597;DHT22;5854;48.072;16.286;2024-02-21T14:26:23;12.40;42.30
11597;DHT22;5854;48.072;16.286;2024-02-21T14:28:51;12.40;41.40
11597;DHT22;5854;48.072;16.286;2024-02-21T14:31:18;12.30;40.80
11597;DHT22;5854;48.072;16.286;2024-02-21T14:33:47;12.30;40.20
11597;DHT22;5854;48.072;16.286;2024-02-21T14:36:14;12.30;41.10
11597;DHT22;5854;48.072;16.286;2024-02-21T14:38:42;12.30;39.90
11597;DHT22;5854;48.072;16.286;2024-02-21T14:41:10;12.20;41.50
11597;DHT22;5854;48.072;16.286;2024-02-21T14:43:37;12.20;40.80
11597;DHT22;5854;48.072;16.286;2024-02-21T14:46:05;12.10;42.30
11597;DHT22;5854;48.072;16.286;2024-02-21T14:48:32;12.10;47.70
11597;DHT22;5854;48.072;16.286;2024-02-21T14:51:01;12.00;42.10
11597;DHT22;5854;48.072;16.286;2024-02-21T14:53:28;12.00;43.10
11597;DHT22;5854;48.072;16.286;2024-02-21T14:55:56;12.10;46.30
11597;DHT22;5854;48.072;16.286;2024-02-21T14:58:24;12.10;41.30
11597;DHT22;5854;48.072;16.286;2024-02-21T15:00:51;12.10;42.50
11597;DHT22;5854;48.072;16.286;2024-02-21T15:03:20;12.00;40.90
11597;DHT22;5854;48.072;16.286;2024-02-21T15:05:47;12.00;42.50
11597;DHT22;5854;48.072;16.286;2024-02-21T15:08:17;12.10;43.70
11597;DHT22;5854;48.072;16.286;2024-02-21T15:10:45;12.10;42.10
11597;DHT22;5854;48.072;16.286;2024-02-21T15:13:12;12.10;44.40
11597;DHT22;5854;48.072;16.286;2024-02-21T15:15:40;12.00;41.60
11597;DHT22;5854;48.072;16.286;2024-02-21T15:18:07;12.00;44.30
11597;DHT22;5854;48.072;16.286;2024-02-21T15:20:34;12.00;42.80
11597;DHT22;5854;48.072;16.286;2024-02-21T15:23:02;11.90;44.20
11597;DHT22;5854;48.072;16.286;2024-02-21T15:25:32;11.80;44.40
11597;DHT22;5854;48.072;16.286;2024-02-21T15:28:00;11.70;46.70
11597;DHT22;5854;48.072;16.286;2024-02-21T15:30:28;11.70;47.50
11597;DHT22;5854;48.072;16.286;2024-02-21T15:32:57;11.60;48.10
11597;DHT22;5854;48.072;16.286;2024-02-21T15:35:27;11.60;47.90
11597;DHT22;5854;48.072;16.286;2024-02-21T15:37:54;11.50;46.60
11597;DHT22;5854;48.072;16.286;2024-02-21T15:40:22;11.60;43.70
11597;DHT22;5854;48.072;16.286;2024-02-21T15:42:51;11.50;46.00
11597;DHT22;5854;48.072;16.286;2024-02-21T15:45:19;11.50;44.30